sensor_id;sensor_type;location;lat;lon;timestamp;P1;durP1;ratioP1;P2;durP2;ratioP2
4756;SDS011;2392;52.578;13.426;2023-03-01T00:00:04;55.97;;;32.50;;
4756;SDS011;2392;52.578;13.426;2023-03-01T00:02:36;55.97;;;30.63;;
4756;SDS011;2392;52.578;13.426;2023-03-01T00:05:05;50.93;;;29.70;;
4756;SDS011;2392;52.578;13.426;2023-03-01T00:07:33;47.20;;;28.17;;
4756;SDS011;2392;52.578;13.426;2023-03-01T00:10:00;56.73;;;28.80;;
4756;SDS011;2392;52.578;13.426;2023-03-01T00:12:27;53.50;;;27.73;;
4756;SDS011;2392;52.578;13.426;2023-03-01T00:14:54;45.80;;;28.30;;
4756;SDS011;2392;52.578;13.426;2023-03-01T00:17:21;47.40;;;27.30;;
4756;SDS011;2392;52.578;13.426;2023-03-01T00:19:48;39.13;;;24.40;;
4756;SDS011;2392;52.578;13.426;2023-03-01T00:22:16;43.53;;;23.07;;
4756;SDS011;2392;52.578;13.426;2023-03-01T00:24:43;44.43;;;25.17;;
4756;SDS011;2392;52.578;13.426;2023-03-01T00:27:10;43.67;;;23.80;;
4756;SDS011;2392;52.578;13.426;2023-03-01T00:29:37;46.63;;;27.90;;
4756;SDS011;2392;52.578;13.426;2023-03-01T00:32:04;45.43;;;23.47;;
4756;SDS011;2392;52.578;13.426;2023-03-01T00:34:31;43.57;;;22.73;;
4756;SDS011;2392;52.578;13.426;2023-03-01T00:36:58;36.63;;;23.17;;
4756;SDS011;2392;52.578;13.426;2023-03-01T00:39:31;40.33;;;22.70;;
4756;SDS011;2392;52.578;13.426;2023-03-01T00:41:58;37.37;;;22.87;;
4756;SDS011;2392;52.578;13.426;2023-03-01T00:44:25;38.23;;;21.73;;
4756;SDS011;2392;52.578;13.426;2023-03-01T00:46:55;41.70;;;23.73;;
4756;SDS011;2392;52.578;13.426;2023-03-01T00:49:22;35.37;;;21.17;;
4756;SDS011;2392;52.578;13.426;2023-03-01T00:51:53;37.83;;;20.40;;
4756;SDS011;2392;52.578;13.426;2023-03-01T00:54:21;39.07;;;21.40;;
4756;SDS011;2392;52.578;13.426;2023-03-01T00:56:50;38.27;;;20.80;;
4756;SDS011;2392;52.578;13.426;2023-03-01T00:59:17;34.73;;;19.93;;
4756;SDS011;2392;52.578;13.426;2023-03-01T01:01:44;35.00;;;19.40;;
4756;SDS011;2392;52.578;13.426;2023-03-01T01:04:11;34.93;;;18.23;;
4756;SDS011;2392;52.578;13.426;2023-03-01T01:06:40;46.27;;;24.53;;
4756;SDS011;2392;52.578;13.426;2023-03-01T01:09:08;41.77;;;25.47;;
4756;SDS011;2392;52.578;13.426;2023-03-01T01:11:42;47.40;;;26.53;;
4756;SDS011;2392;52.578;13.426;2023-03-01T01:14:11;49.13;;;26.10;;
4756;SDS011;2392;52.578;13.426;2023-03-01T01:16:38;49.10;;;25.10;;
4756;SDS011;2392;52.578;13.426;2023-03-01T01:19:05;44.17;;;23.30;;
4756;SDS011;2392;52.578;13.426;2023-03-01T01:21:33;44.63;;;23.33;;
4756;SDS011;2392;52.578;13.426;2023-03-01T01:24:00;46.07;;;24.13;;
4756;SDS011;2392;52.578;13.426;2023-03-01T01:26:29;46.53;;;22.70;;
4756;SDS011;2392;52.578;13.426;2023-03-01T01:28:57;37.10;;;21.83;;
4756;SDS011;2392;52.578;13.426;2023-03-01T01:31:27;44.10;;;23.50;;
4756;SDS011;2392;52.578;13.426;2023-03-01T01:33:56;40.90;;;24.27;;
4756;SDS011;2392;52.578;13.426;2023-03-01T01:36:24;38.10;;;22.93;;
4756;SDS011;2392;52.578;13.426;2023-03-01T01:38:51;37.90;;;22.90;;
4756;SDS011;2392;52.578;13.426;2023-03-01T01:41:18;47.20;;;24.57;;
4756;SDS011;2392;52.578;13.426;2023-03-01T01:43:47;41.93;;;22.43;;
4756;SDS011;2392;52.578;13.426;2023-03-01T01:46:17;37.63;;;21.23;;
4756;SDS011;2392;52.578;13.426;2023-03-01T01:48:53;31.77;;;18.23;;
4756;SDS011;2392;52.578;13.426;2023-03-01T01:51:24;21.50;;;14.27;;
4756;SDS011;2392;52.578;13.426;2023-03-01T01:53:55;26.43;;;14.90;;
4756;SDS011;2392;52.578;13.426;2023-03-01T01:56:26;44.33;;;24.00;;
4756;SDS011;2392;52.578;13.426;2023-03-01T01:58:55;41.17;;;23.77;;
4756;SDS011;2392;52.578;13.426;2023-03-01T02:01:22;43.87;;;22.70;;
4756;SDS011;2392;52.578;13.426;2023-03-01T02:03:50;36.77;;;20.80;;
4756;SDS011;2392;52.578;13.426;2023-03-01T02:06:19;38.00;;;21.73;;
4756;SDS011;2392;52.578;13.426;2023-03-01T02:08:54;43.63;;;20.97;;
4756;SDS011;2392;52.578;13.426;2023-03-01T02:11:25;38.33;;;20.37;;
4756;SDS011;2392;52.578;13.426;2023-03-01T02:13:55;39.90;;;20.63;;
4756;SDS011;2392;52.578;13.426;2023-03-01T02:16:22;33.63;;;18.87;;
4756;SDS011;2392;52.578;13.426;2023-03-01T02:18:49;26.07;;;16.90;;
4756;SDS011;2392;52.578;13.426;2023-03-01T02:21:25;36.93;;;17.90;;
4756;SDS011;2392;52.578;13.426;2023-03-01T02:24:04;30.23;;;17.00;;
4756;SDS011;2392;52.578;13.426;2023-03-01T02:26:46;33.00;;;16.63;;
4756;SDS011;2392;52.578;13.426;2023-03-01T02:29:17;31.13;;;17.47;;
4756;SDS011;2392;52.578;13.426;2023-03-01T02:31:45;26.93;;;16.50;;
4756;SDS011;2392;52.578;13.426;2023-03-01T02:34:14;29.07;;;15.60;;
4756;SDS011;2392;52.578;13.426;2023-03-01T02:36:43;24.60;;;14.38;;
4756;SDS011;2392;52.578;13.426;2023-03-01T02:39:14;24.80;;;13.60;;
4756;SDS011;2392;52.578;13.426;2023-03-01T02:41:44;26.23;;;14.83;;
4756;SDS011;2392;52.578;13.426;2023-03-01T02:44:13;23.83;;;14.20;;
4756;SDS011;2392;52.578;13.426;2023-03-01T02:46:45;24.13;;;13.50;;
4756;SDS011;2392;52.578;13.426;2023-03-01T02:49:18;24.53;;;14.57;;
4756;SDS011;2392;52.578;13.426;2023-03-01T02:51:52;22.60;;;13.60;;
4756;SDS011;2392;52.578;13.426;2023-03-01T02:54:36;27.07;;;13.63;;
4756;SDS011;2392;52.578;13.426;2023-03-01T02:57:07;25.17;;;14.00;;
4756;SDS011;2392;52.578;13.426;2023-03-01T02:59:35;25.03;;;14.63;;
4756;SDS011;2392;52.578;13.426;2023-03-01T03:02:17;26.93;;;13.10;;
4756;SDS011;2392;52.578;13.426;2023-03-01T03:05:11;24.60;;;13.50;;
4756;SDS011;2392;52.578;13.426;2023-03-01T03:07:41;19.33;;;13.83;;
4756;SDS011;2392;52.578;13.426;2023-03-01T03:10:10;21.80;;;13.40;;
4756;SDS011;2392;52.578;13.426;2023-03-01T03:12:39;25.07;;;12.50;;
4756;SDS011;2392;52.578;13.426;2023-03-01T03:15:08;19.37;;;12.40;;
4756;SDS011;2392;52.578;13.426;2023-03-01T03:17:40;23.90;;;13.13;;
4756;SDS011;2392;52.578;13.426;2023-03-01T03:20:09;27.87;;;14.10;;
4756;SDS011;2392;52.578;13.426;2023-03-01T03:22:42;30.23;;;15.40;;
4756;SDS011;2392;52.578;13.426;2023-03-01T03:25:09;26.07;;;15.87;;
4756;SDS011;2392;52.578;13.426;2023-03-01T03:27:36;27.67;;;14.33;;
4756;SDS011;2392;52.578;13.426;2023-03-01T03:30:04;23.60;;;14.40;;
4756;SDS011;2392;52.578;13.426;2023-03-01T03:32:34;32.33;;;17.30;;
4756;SDS011;2392;52.578;13.426;2023-03-01T03:35:03;25.67;;;14.60;;
4756;SDS011;2392;52.578;13.426;2023-03-01T03:37:35;29.10;;;15.37;;
4756;SDS011;2392;52.578;13.426;2023-03-01T03:40:20;23.47;;;14.07;;
4756;SDS011;2392;52.578;13.426;2023-03-01T03:42:47;30.00;;;15.20;;
4756;SDS011;2392;52.578;13.426;2023-03-01T03:45:14;21.83;;;13.37;;
4756;SDS011;2392;52.578;13.426;2023-03-01T03:47:41;24.27;;;14.80;;
4756;SDS011;2392;52.578;13.426;2023-03-01T03:50:10;22.50;;;14.03;;
4756;SDS011;2392;52.578;13.426;2023-03-01T03:52:38;22.83;;;14.00;;
4756;SDS011;2392;52.578;13.426;2023-03-01T03:55:06;26.03;;;14.03;;
4756;SDS011;2392;52.578;13.426;2023-03-01T03:57:36;27.00;;;14.20;;
4756;SDS011;2392;52.578;13.426;2023-03-01T04:00:03;24.53;;;12.47;;
4756;SDS011;2392;52.578;13.426;2023-03-01T04:02:37;19.40;;;12.30;;
4756;SDS011;2392;52.578;13.426;2023-03-01T04:05:05;21.50;;;13.30;;
4756;SDS011;2392;52.578;13.426;2023-03-01T04:07:34;20.03;;;12.37;;
4756;SDS011;2392;52.578;13.426;2023-03-01T04:10:02;22.87;;;13.50;;
4756;SDS011;2392;52.578;13.426;2023-03-01T04:12:29;22.40;;;13.60;;
4756;SDS011;2392;52.578;13.426;2023-03-01T04:14:59;30.17;;;16.03;;
4756;SDS011;2392;52.578;13.426;2023-03-01T04:17:26;29.50;;;15.13;;
4756;SDS011;2392;52.578;13.426;2023-03-01T04:19:53;34.60;;;17.30;;
4756;SDS011;2392;52.578;13.426;2023-03-01T04:22:20;30.10;;;17.87;;
4756;SDS011;2392;52.578;13.426;2023-03-01T04:24:48;28.67;;;16.10;;
4756;SDS011;2392;52.578;13.426;2023-03-01T04:27:15;27.93;;;16.40;;
4756;SDS011;2392;52.578;13.426;2023-03-01T04:29:42;29.50;;;17.40;;
4756;SDS011;2392;52.578;13.426;2023-03-01T04:32:09;31.40;;;16.17;;
4756;SDS011;2392;52.578;13.426;2023-03-01T04:34:37;27.60;;;15.17;;
4756;SDS011;2392;52.578;13.426;2023-03-01T04:37:04;25.23;;;15.40;;
4756;SDS011;2392;52.578;13.426;2023-03-01T04:39:31;25.57;;;14.17;;
4756;SDS011;2392;52.578;13.426;2023-03-01T04:41:59;27.17;;;14.17;;
4756;SDS011;2392;52.578;13.426;2023-03-01T04:44:26;24.20;;;12.60;;
4756;SDS011;2392;52.578;13.426;2023-03-01T04:46:53;24.23;;;13.70;;
4756;SDS011;2392;52.578;13.426;2023-03-01T04:49:20;23.83;;;14.03;;
4756;SDS011;2392;52.578;13.426;2023-03-01T04:51:47;28.33;;;13.73;;
4756;SDS011;2392;52.578;13.426;2023-03-01T04:54:14;36.60;;;19.27;;
4756;SDS011;2392;52.578;13.426;2023-03-01T04:56:41;36.70;;;17.57;;
4756;SDS011;2392;52.578;13.426;2023-03-01T04:59:09;26.10;;;16.17;;
4756;SDS011;2392;52.578;13.426;2023-03-01T05:01:38;27.00;;;15.70;;
4756;SDS011;2392;52.578;13.426;2023-03-01T05:04:07;31.97;;;17.90;;
4756;SDS011;2392;52.578;13.426;2023-03-01T05:06:38;33.50;;;15.80;;
4756;SDS011;2392;52.578;13.426;2023-03-01T05:09:05;23.90;;;14.43;;
4756;SDS011;2392;52.578;13.426;2023-03-01T05:11:32;28.60;;;15.73;;
4756;SDS011;2392;52.578;13.426;2023-03-01T05:14:01;20.83;;;14.17;;
4756;SDS011;2392;52.578;13.426;2023-03-01T05:16:29;24.57;;;15.17;;
4756;SDS011;2392;52.578;13.426;2023-03-01T05:18:57;24.30;;;14.10;;
4756;SDS011;2392;52.578;13.426;2023-03-01T05:21:24;24.80;;;12.20;;
4756;SDS011;2392;52.578;13.426;2023-03-01T05:23:51;24.57;;;13.03;;
4756;SDS011;2392;52.578;13.426;2023-03-01T05:26:19;19.50;;;12.83;;
4756;SDS011;2392;52.578;13.426;2023-03-01T05:28:52;21.63;;;12.43;;
4756;SDS011;2392;52.578;13.426;2023-03-01T05:31:23;18.77;;;13.10;;
4756;SDS011;2392;52.578;13.426;2023-03-01T05:33:51;24.60;;;12.83;;
4756;SDS011;2392;52.578;13.426;2023-03-01T05:36:18;22.70;;;13.10;;
4756;SDS011;2392;52.578;13.426;2023-03-01T05:38:45;20.50;;;11.90;;
4756;SDS011;2392;52.578;13.426;2023-03-01T05:41:13;29.57;;;14.40;;
4756;SDS011;2392;52.578;13.426;2023-03-01T05:43:41;23.67;;;14.93;;
4756;SDS011;2392;52.578;13.426;2023-03-01T05:46:09;22.90;;;14.80;;
4756;SDS011;2392;52.578;13.426;2023-03-01T05:48:38;22.77;;;14.05;;
4756;SDS011;2392;52.578;13.426;2023-03-01T05:51:06;29.00;;;14.20;;
4756;SDS011;2392;52.578;13.426;2023-03-01T05:53:33;27.60;;;14.00;;
4756;SDS011;2392;52.578;13.426;2023-03-01T05:56:02;25.03;;;14.60;;
4756;SDS011;2392;52.578;13.426;2023-03-01T05:58:29;22.63;;;12.07;;
4756;SDS011;2392;52.578;13.426;2023-03-01T06:00:56;21.40;;;13.97;;
4756;SDS011;2392;52.578;13.426;2023-03-01T06:03:23;22.17;;;13.33;;
4756;SDS011;2392;52.578;13.426;2023-03-01T06:05:55;27.67;;;14.60;;
4756;SDS011;2392;52.578;13.426;2023-03-01T06:08:23;23.07;;;13.70;;
4756;SDS011;2392;52.578;13.426;2023-03-01T06:10:52;27.90;;;14.03;;
4756;SDS011;2392;52.578;13.426;2023-03-01T06:13:19;22.57;;;13.37;;
4756;SDS011;2392;52.578;13.426;2023-03-01T06:15:46;24.20;;;13.37;;
4756;SDS011;2392;52.578;13.426;2023-03-01T06:18:13;26.30;;;14.47;;
4756;SDS011;2392;52.578;13.426;2023-03-01T06:20:40;23.77;;;13.70;;
4756;SDS011;2392;52.578;13.426;2023-03-01T06:23:07;21.23;;;13.00;;
4756;SDS011;2392;52.578;13.426;2023-03-01T06:25:35;19.67;;;12.80;;
4756;SDS011;2392;52.578;13.426;2023-03-01T06:28:03;30.70;;;14.67;;
4756;SDS011;2392;52.578;13.426;2023-03-01T06:30:30;24.90;;;14.17;;
4756;SDS011;2392;52.578;13.426;2023-03-01T06:32:57;24.20;;;14.60;;
4756;SDS011;2392;52.578;13.426;2023-03-01T06:35:26;32.00;;;14.60;;
4756;SDS011;2392;52.578;13.426;2023-03-01T06:37:55;27.17;;;15.37;;
4756;SDS011;2392;52.578;13.426;2023-03-01T06:40:22;24.20;;;12.83;;
4756;SDS011;2392;52.578;13.426;2023-03-01T06:42:51;22.07;;;13.40;;
4756;SDS011;2392;52.578;13.426;2023-03-01T06:45:19;24.47;;;13.57;;
4756;SDS011;2392;52.578;13.426;2023-03-01T06:47:47;30.23;;;14.67;;
4756;SDS011;2392;52.578;13.426;2023-03-01T06:50:14;20.27;;;13.60;;
4756;SDS011;2392;52.578;13.426;2023-03-01T06:52:42;43.87;;;15.23;;
4756;SDS011;2392;52.578;13.426;2023-03-01T06:55:10;27.20;;;15.63;;
4756;SDS011;2392;52.578;13.426;2023-03-01T06:57:37;26.70;;;15.83;;
4756;SDS011;2392;52.578;13.426;2023-03-01T07:00:06;25.73;;;14.70;;
4756;SDS011;2392;52.578;13.426;2023-03-01T07:02:34;24.00;;;14.67;;
4756;SDS011;2392;52.578;13.426;2023-03-01T07:05:01;24.73;;;15.40;;
4756;SDS011;2392;52.578;13.426;2023-03-01T07:07:29;24.30;;;13.80;;
4756;SDS011;2392;52.578;13.426;2023-03-01T07:09:56;26.00;;;15.10;;
4756;SDS011;2392;52.578;13.426;2023-03-01T07:12:23;32.40;;;15.57;;
4756;SDS011;2392;52.578;13.426;2023-03-01T07:14:50;29.00;;;15.60;;
4756;SDS011;2392;52.578;13.426;2023-03-01T07:17:18;22.90;;;13.60;;
4756;SDS011;2392;52.578;13.426;2023-03-01T07:19:46;24.20;;;13.23;;
4756;SDS011;2392;52.578;13.426;2023-03-01T07:22:13;28.67;;;16.10;;
4756;SDS011;2392;52.578;13.426;2023-03-01T07:24:40;22.80;;;13.50;;
4756;SDS011;2392;52.578;13.426;2023-03-01T07:27:07;24.17;;;14.63;;
4756;SDS011;2392;52.578;13.426;2023-03-01T07:29:35;22.90;;;12.57;;
4756;SDS011;2392;52.578;13.426;2023-03-01T07:32:02;23.63;;;13.23;;
4756;SDS011;2392;52.578;13.426;2023-03-01T07:34:31;25.57;;;14.40;;
4756;SDS011;2392;52.578;13.426;2023-03-01T07:36:58;18.73;;;12.80;;
4756;SDS011;2392;52.578;13.426;2023-03-01T07:39:26;21.47;;;13.43;;
4756;SDS011;2392;52.578;13.426;2023-03-01T07:41:53;23.00;;;13.53;;
4756;SDS011;2392;52.578;13.426;2023-03-01T07:44:21;20.63;;;13.23;;
4756;SDS011;2392;52.578;13.426;2023-03-01T07:46:48;21.47;;;12.70;;
4756;SDS011;2392;52.578;13.426;2023-03-01T07:49:17;19.27;;;12.03;;
4756;SDS011;2392;52.578;13.426;2023-03-01T07:51:46;20.57;;;13.13;;
4756;SDS011;2392;52.578;13.426;2023-03-01T07:54:13;21.37;;;14.40;;
4756;SDS011;2392;52.578;13.426;2023-03-01T07:56:41;20.63;;;12.93;;
4756;SDS011;2392;52.578;13.426;2023-03-01T07:59:08;18.73;;;12.50;;
4756;SDS011;2392;52.578;13.426;2023-03-01T08:01:35;14.23;;;10.70;;
4756;SDS011;2392;52.578;13.426;2023-03-01T08:04:02;19.63;;;12.00;;
4756;SDS011;2392;52.578;13.426;2023-03-01T08:06:33;15.10;;;10.50;;
4756;SDS011;2392;52.578;13.426;2023-03-01T08:09:02;22.07;;;10.23;;
4756;SDS011;2392;52.578;13.426;2023-03-01T08:11:29;22.10;;;10.63;;
4756;SDS011;2392;52.578;13.426;2023-03-01T08:13:56;14.37;;;10.43;;
4756;SDS011;2392;52.578;13.426;2023-03-01T08:16:23;15.27;;;9.87;;
4756;SDS011;2392;52.578;13.426;2023-03-01T08:18:50;17.10;;;11.50;;
4756;SDS011;2392;52.578;13.426;2023-03-01T08:21:17;16.97;;;10.33;;
4756;SDS011;2392;52.578;13.426;2023-03-01T08:23:45;15.83;;;9.27;;
4756;SDS011;2392;52.578;13.426;2023-03-01T08:26:14;15.83;;;10.00;;
4756;SDS011;2392;52.578;13.426;2023-03-01T08:28:44;14.53;;;10.00;;
4756;SDS011;2392;52.578;13.426;2023-03-01T08:31:15;16.77;;;10.13;;
4756;SDS011;2392;52.578;13.426;2023-03-01T08:33:44;13.90;;;10.17;;
4756;SDS011;2392;52.578;13.426;2023-03-01T08:36:15;18.53;;;10.47;;
4756;SDS011;2392;52.578;13.426;2023-03-01T08:38:43;11.80;;;8.50;;
4756;SDS011;2392;52.578;13.426;2023-03-01T08:41:11;13.27;;;9.80;;
4756;SDS011;2392;52.578;13.426;2023-03-01T08:43:39;12.47;;;8.80;;
4756;SDS011;2392;52.578;13.426;2023-03-01T08:46:06;15.33;;;7.50;;
4756;SDS011;2392;52.578;13.426;2023-03-01T08:48:33;14.00;;;7.70;;
4756;SDS011;2392;52.578;13.426;2023-03-01T08:51:06;11.67;;;8.20;;
4756;SDS011;2392;52.578;13.426;2023-03-01T08:53:34;16.37;;;8.63;;
4756;SDS011;2392;52.578;13.426;2023-03-01T08:56:02;18.23;;;9.40;;
4756;SDS011;2392;52.578;13.426;2023-03-01T08:58:29;11.30;;;7.10;;
4756;SDS011;2392;52.578;13.426;2023-03-01T09:00:58;8.63;;;6.27;;
4756;SDS011;2392;52.578;13.426;2023-03-01T09:03:25;10.30;;;6.67;;
4756;SDS011;2392;52.578;13.426;2023-03-01T09:05:52;9.70;;;6.70;;
4756;SDS011;2392;52.578;13.426;2023-03-01T09:08:25;8.60;;;6.43;;
4756;SDS011;2392;52.578;13.426;2023-03-01T09:10:52;11.33;;;4.97;;
4756;SDS011;2392;52.578;13.426;2023-03-01T09:13:19;10.70;;;4.20;;
4756;SDS011;2392;52.578;13.426;2023-03-01T09:15:48;6.63;;;4.57;;
4756;SDS011;2392;52.578;13.426;2023-03-01T09:18:17;9.63;;;5.40;;
4756;SDS011;2392;52.578;13.426;2023-03-01T09:20:44;5.20;;;3.80;;
4756;SDS011;2392;52.578;13.426;2023-03-01T09:23:11;4.20;;;3.80;;
4756;SDS011;2392;52.578;13.426;2023-03-01T09:25:38;8.73;;;5.07;;
4756;SDS011;2392;52.578;13.426;2023-03-01T09:28:05;4.53;;;3.53;;
4756;SDS011;2392;52.578;13.426;2023-03-01T09:30:32;5.47;;;3.23;;
4756;SDS011;2392;52.578;13.426;2023-03-01T09:32:59;4.03;;;3.63;;
4756;SDS011;2392;52.578;13.426;2023-03-01T09:35:28;6.43;;;3.83;;
4756;SDS011;2392;52.578;13.426;2023-03-01T09:37:55;6.07;;;3.90;;
4756;SDS011;2392;52.578;13.426;2023-03-01T09:40:23;7.23;;;3.83;;
4756;SDS011;2392;52.578;13.426;2023-03-01T09:42:54;4.00;;;3.63;;
4756;SDS011;2392;52.578;13.426;2023-03-01T09:45:29;4.40;;;3.00;;
4756;SDS011;2392;52.578;13.426;2023-03-01T09:48:00;5.70;;;3.17;;
4756;SDS011;2392;52.578;13.426;2023-03-01T09:50:33;7.03;;;3.67;;
4756;SDS011;2392;52.578;13.426;2023-03-01T09:53:05;6.10;;;4.17;;
4756;SDS011;2392;52.578;13.426;2023-03-01T09:55:37;7.73;;;3.30;;
4756;SDS011;2392;52.578;13.426;2023-03-01T09:58:19;6.63;;;3.00;;
4756;SDS011;2392;52.578;13.426;2023-03-01T10:00:58;3.40;;;2.47;;
4756;SDS011;2392;52.578;13.426;2023-03-01T10:03:31;3.80;;;2.47;;
4756;SDS011;2392;52.578;13.426;2023-03-01T10:06:06;4.23;;;2.90;;
4756;SDS011;2392;52.578;13.426;2023-03-01T10:08:39;5.23;;;2.60;;
4756;SDS011;2392;52.578;13.426;2023-03-01T10:11:16;2.70;;;2.43;;
4756;SDS011;2392;52.578;13.426;2023-03-01T10:13:48;3.23;;;2.60;;
4756;SDS011;2392;52.578;13.426;2023-03-01T10:16:22;5.90;;;2.97;;
4756;SDS011;2392;52.578;13.426;2023-03-01T10:18:55;8.00;;;3.37;;
4756;SDS011;2392;52.578;13.426;2023-03-01T10:21:27;5.17;;;2.90;;
4756;SDS011;2392;52.578;13.426;2023-03-01T10:23:57;8.10;;;3.50;;
4756;SDS011;2392;52.578;13.426;2023-03-01T10:26:38;3.97;;;3.57;;
4756;SDS011;2392;52.578;13.426;2023-03-01T10:29:11;5.37;;;3.30;;
4756;SDS011;2392;52.578;13.426;2023-03-01T10:31:40;4.57;;;3.40;;
4756;SDS011;2392;52.578;13.426;2023-03-01T10:34:10;7.87;;;4.00;;
4756;SDS011;2392;52.578;13.426;2023-03-01T10:36:41;6.40;;;3.47;;
4756;SDS011;2392;52.578;13.426;2023-03-01T10:39:13;4.87;;;3.20;;
4756;SDS011;2392;52.578;13.426;2023-03-01T10:44:39;3.00;;;2.80;;
4756;SDS011;2392;52.578;13.426;2023-03-01T10:47:12;4.00;;;3.37;;
4756;SDS011;2392;52.578;13.426;2023-03-01T10:52:31;5.43;;;2.80;;
4756;SDS011;2392;52.578;13.426;2023-03-01T10:55:01;4.60;;;3.00;;
4756;SDS011;2392;52.578;13.426;2023-03-01T10:57:46;2.73;;;2.50;;
4756;SDS011;2392;52.578;13.426;2023-03-01T11:00:18;4.87;;;2.97;;
4756;SDS011;2392;52.578;13.426;2023-03-01T11:02:48;2.60;;;2.40;;
4756;SDS011;2392;52.578;13.426;2023-03-01T11:05:18;3.47;;;2.50;;
4756;SDS011;2392;52.578;13.426;2023-03-01T11:07:51;4.37;;;2.77;;
4756;SDS011;2392;52.578;13.426;2023-03-01T11:10:20;3.53;;;2.97;;
4756;SDS011;2392;52.578;13.426;2023-03-01T11:12:50;3.03;;;2.80;;
4756;SDS011;2392;52.578;13.426;2023-03-01T11:15:21;3.30;;;3.00;;
4756;SDS011;2392;52.578;13.426;2023-03-01T11:17:50;5.43;;;2.67;;
4756;SDS011;2392;52.578;13.426;2023-03-01T11:20:21;2.87;;;2.60;;
4756;SDS011;2392;52.578;13.426;2023-03-01T11:22:54;4.33;;;2.63;;
4756;SDS011;2392;52.578;13.426;2023-03-01T11:25:24;3.37;;;2.67;;
4756;SDS011;2392;52.578;13.426;2023-03-01T11:27:53;4.30;;;3.27;;
4756;SDS011;2392;52.578;13.426;2023-03-01T11:30:22;6.13;;;3.47;;
4756;SDS011;2392;52.578;13.426;2023-03-01T11:32:55;4.43;;;2.63;;
4756;SDS011;2392;52.578;13.426;2023-03-01T11:35:31;3.13;;;2.70;;
4756;SDS011;2392;52.578;13.426;2023-03-01T11:38:09;2.40;;;2.20;;
4756;SDS011;2392;52.578;13.426;2023-03-01T11:40:44;3.47;;;3.17;;
4756;SDS011;2392;52.578;13.426;2023-03-01T11:43:19;2.80;;;2.60;;
4756;SDS011;2392;52.578;13.426;2023-03-01T11:46:02;4.50;;;3.10;;
4756;SDS011;2392;52.578;13.426;2023-03-01T11:48:52;3.40;;;3.10;;
4756;SDS011;2392;52.578;13.426;2023-03-01T11:51:36;3.80;;;3.50;;
4756;SDS011;2392;52.578;13.426;2023-03-01T11:54:20;2.83;;;2.63;;
4756;SDS011;2392;52.578;13.426;2023-03-01T11:56:57;3.10;;;2.57;;
4756;SDS011;2392;52.578;13.426;2023-03-01T11:59:36;3.60;;;3.30;;
4756;SDS011;2392;52.578;13.426;2023-03-01T12:02:36;3.43;;;3.23;;
4756;SDS011;2392;52.578;13.426;2023-03-01T12:05:24;2.80;;;2.37;;
4756;SDS011;2392;52.578;13.426;2023-03-01T12:08:04;3.67;;;2.87;;
4756;SDS011;2392;52.578;13.426;2023-03-01T12:10:39;3.17;;;2.97;;
4756;SDS011;2392;52.578;13.426;2023-03-01T12:13:23;3.03;;;2.80;;
4756;SDS011;2392;52.578;13.426;2023-03-01T12:16:14;8.50;;;3.13;;
4756;SDS011;2392;52.578;13.426;2023-03-01T12:18:56;7.57;;;3.03;;
4756;SDS011;2392;52.578;13.426;2023-03-01T12:21:35;6.67;;;2.70;;
4756;SDS011;2392;52.578;13.426;2023-03-01T12:24:32;7.97;;;3.40;;
4756;SDS011;2392;52.578;13.426;2023-03-01T12:27:26;3.07;;;2.87;;
4756;SDS011;2392;52.578;13.426;2023-03-01T12:30:17;3.33;;;2.50;;
4756;SDS011;2392;52.578;13.426;2023-03-01T12:32:54;2.93;;;2.70;;
4756;SDS011;2392;52.578;13.426;2023-03-01T12:35:38;4.67;;;3.10;;
4756;SDS011;2392;52.578;13.426;2023-03-01T12:38:41;2.80;;;2.60;;
4756;SDS011;2392;52.578;13.426;2023-03-01T12:41:14;3.40;;;2.87;;
4756;SDS011;2392;52.578;13.426;2023-03-01T12:44:03;2.90;;;2.70;;
4756;SDS011;2392;52.578;13.426;2023-03-01T12:46:41;2.80;;;2.60;;
4756;SDS011;2392;52.578;13.426;2023-03-01T12:49:21;3.97;;;3.10;;
4756;SDS011;2392;52.578;13.426;2023-03-01T12:51:54;2.63;;;2.43;;
4756;SDS011;2392;52.578;13.426;2023-03-01T12:54:26;3.47;;;2.90;;
4756;SDS011;2392;52.578;13.426;2023-03-01T12:56:57;2.50;;;2.40;;
4756;SDS011;2392;52.578;13.426;2023-03-01T12:59:32;1.90;;;1.80;;
4756;SDS011;2392;52.578;13.426;2023-03-01T13:02:05;3.47;;;2.73;;
4756;SDS011;2392;52.578;13.426;2023-03-01T13:04:45;3.37;;;2.40;;
4756;SDS011;2392;52.578;13.426;2023-03-01T13:07:25;2.60;;;2.40;;
4756;SDS011;2392;52.578;13.426;2023-03-01T13:10:04;2.63;;;2.00;;
4756;SDS011;2392;52.578;13.426;2023-03-01T13:12:45;4.30;;;2.90;;
4756;SDS011;2392;52.578;13.426;2023-03-01T13:15:29;2.50;;;1.80;;
4756;SDS011;2392;52.578;13.426;2023-03-01T13:17:58;4.43;;;2.43;;
4756;SDS011;2392;52.578;13.426;2023-03-01T13:20:29;5.80;;;2.40;;
4756;SDS011;2392;52.578;13.426;2023-03-01T13:23:00;2.40;;;2.17;;
4756;SDS011;2392;52.578;13.426;2023-03-01T13:25:33;2.90;;;2.30;;
4756;SDS011;2392;52.578;13.426;2023-03-01T13:31:07;2.30;;;2.20;;
4756;SDS011;2392;52.578;13.426;2023-03-01T13:33:43;2.73;;;2.40;;
4756;SDS011;2392;52.578;13.426;2023-03-01T13:36:37;3.07;;;2.40;;
4756;SDS011;2392;52.578;13.426;2023-03-01T13:39:28;4.27;;;2.50;;
4756;SDS011;2392;52.578;13.426;2023-03-01T13:42:00;2.50;;;2.13;;
4756;SDS011;2392;52.578;13.426;2023-03-01T13:44:30;2.37;;;2.17;;
4756;SDS011;2392;52.578;13.426;2023-03-01T13:47:03;3.00;;;2.33;;
4756;SDS011;2392;52.578;13.426;2023-03-01T13:49:43;2.50;;;2.30;;
4756;SDS011;2392;52.578;13.426;2023-03-01T13:55:06;2.93;;;2.47;;
4756;SDS011;2392;52.578;13.426;2023-03-01T13:57:43;2.30;;;2.10;;
4756;SDS011;2392;52.578;13.426;2023-03-01T14:00:24;3.27;;;2.97;;
4756;SDS011;2392;52.578;13.426;2023-03-01T14:03:00;2.87;;;2.67;;
4756;SDS011;2392;52.578;13.426;2023-03-01T14:05:35;2.20;;;2.10;;
4756;SDS011;2392;52.578;13.426;2023-03-01T14:08:02;2.67;;;2.47;;
4756;SDS011;2392;52.578;13.426;2023-03-01T14:10:31;3.00;;;2.43;;
4756;SDS011;2392;52.578;13.426;2023-03-01T14:13:08;2.83;;;2.03;;
4756;SDS011;2392;52.578;13.426;2023-03-01T14:15:48;2.93;;;2.73;;
4756;SDS011;2392;52.578;13.426;2023-03-01T14:18:28;3.90;;;2.53;;
4756;SDS011;2392;52.578;13.426;2023-03-01T14:21:07;3.03;;;2.07;;
4756;SDS011;2392;52.578;13.426;2023-03-01T14:23:34;3.93;;;2.13;;
4756;SDS011;2392;52.578;13.426;2023-03-01T14:26:05;5.23;;;2.00;;
4756;SDS011;2392;52.578;13.426;2023-03-01T14:28:34;2.30;;;2.10;;
4756;SDS011;2392;52.578;13.426;2023-03-01T14:31:25;4.03;;;2.63;;
4756;SDS011;2392;52.578;13.426;2023-03-01T14:34:03;2.93;;;2.13;;
4756;SDS011;2392;52.578;13.426;2023-03-01T14:36:32;10.63;;;2.27;;
4756;SDS011;2392;52.578;13.426;2023-03-01T14:39:00;4.47;;;2.40;;
4756;SDS011;2392;52.578;13.426;2023-03-01T14:41:32;2.63;;;2.43;;
4756;SDS011;2392;52.578;13.426;2023-03-01T14:44:02;2.63;;;2.43;;
4756;SDS011;2392;52.578;13.426;2023-03-01T14:46:34;2.30;;;2.03;;
4756;SDS011;2392;52.578;13.426;2023-03-01T14:49:06;2.80;;;2.40;;
4756;SDS011;2392;52.578;13.426;2023-03-01T14:51:37;2.47;;;2.27;;
4756;SDS011;2392;52.578;13.426;2023-03-01T14:54:10;3.70;;;2.23;;
4756;SDS011;2392;52.578;13.426;2023-03-01T14:56:46;2.57;;;2.23;;
4756;SDS011;2392;52.578;13.426;2023-03-01T14:59:13;4.13;;;2.10;;
4756;SDS011;2392;52.578;13.426;2023-03-01T15:01:40;2.50;;;2.00;;
4756;SDS011;2392;52.578;13.426;2023-03-01T15:04:11;9.13;;;2.70;;
4756;SDS011;2392;52.578;13.426;2023-03-01T15:06:39;6.60;;;2.70;;
4756;SDS011;2392;52.578;13.426;2023-03-01T15:09:11;3.33;;;1.90;;
4756;SDS011;2392;52.578;13.426;2023-03-01T15:11:40;3.93;;;2.30;;
4756;SDS011;2392;52.578;13.426;2023-03-01T15:16:55;2.30;;;2.10;;
4756;SDS011;2392;52.578;13.426;2023-03-01T15:19:25;4.53;;;2.50;;
4756;SDS011;2392;52.578;13.426;2023-03-01T15:21:54;4.67;;;2.80;;